Archival Weather

Snohomish County (Paine Fld)

Everett, Washington (KPAE)

Report from: Thursday, November 16, 2023 3:53 AM PST
Current time: Monday, June 17, 2024 1:36 AM PDT

Current weather – Weather history – Daily summaries
Weather forecast

Temperature1.7°C (35.1°F)
Wind chill-0.5°C (31.0°F)
Dew point-0.6°C (30.9°F)
Winds 4 kts (2.1 m/s, 4.6 mph) North (10°)
Visibility10 mi. (16.1 km)
Clouds Sky clear
Altimeter30.09 in.Hg (1019 mB)
Relative humidity85 %
Density altitude-1,733 ft. (-528 m)
Sea-level pressure101.9 kPa (1019 mB, 30.10 in.Hg)
Max temp last 6 hours3.9°C (39.0°F)
Min temp last 6 hours0.6°C (33.1°F)
Remarks Fully automated report
Automated weather observing station with precipitation discriminator
Pressure rising more quickly
Flight conditions Visual Meteorological Conditions
Raw dataKPAE 161153Z AUTO 01004KT 10SM CLR 02/M01 A3009 RMK AO2 SLP192 T00171006 10039 20006 53008
An error has occurred. This application may no longer respond until reloaded. Reload 🗙